Kathryn, ND

2:43 AM CDT on September 02, 2014 (GMT -0500)
Gwinner-melroe | Change Station
CLOSE
Current Station
Airport
Location: Gwinner,
Elevation: 1266 ft
Nearby Weather Stations

Elev 1266 ft 46.22 °N, 97.64 °W | Updated 8 minutes ago

Clear
Clear
54 °F
Feels Like 54 °F
N
0
Wind Variable Wind from North

Today
High -- | Low -- °F
--% Chance of Precip.
Yesterday
High -- | Low -- °F
Precip. -- in
6:53 AM 8:09 PM
Waxing Crescent, 49% visible
Pressure 29.86 in
Visibility 10.0 miles
Clouds Clear
Dew Point 54 °F
Humidity 100%
Rainfall 0.00 in
Snow Depth Not available.
UV 0 out of 12
Pollen 9.30 out of 12
Air Quality Not available.
Flu Activity Not available.
METAR KGWR 020735Z AUTO 00000KT 10SM CLR 12/12 A2986 RMK A01 P000

More Conditions Fewer Conditions

Pressure 29.86 in
Visibility 10.0 miles
Clouds Clear
Dew Point 54 °F
Humidity 100%
Rainfall 0.00 in
Snow Depth Not available.
UV 0 out of 12
Pollen 9.30 out of 12
Air Quality Not available.
Flu Activity Not available.
METAR KGWR 020735Z AUTO 00000KT 10SM CLR 12/12 A2986 RMK A01 P000

More Conditions Fewer Conditions

10-Day Weather Forecast

Almanac

Astronomy

Sep. 02, 2014 Rise Set
Actual Time 6:53 AM CDT 8:09 PM CDT
Civil Twilight 6:21 AM CDT 8:40 PM CDT
Nautical Twilight 5:44 AM CDT 9:17 PM CDT
Astronomical Twilight 5:03 AM CDT 9:57 PM CDT
Moon 3:04 PM CDT No Moon Set
Length of Visible Light 14h 18m
Length of Day
13h 16m
Tomorrow will be 3m 13s shorter.
Waxing Crescent, 49% of the Moon is Illuminated
Today
Waxing Crescent
Sep 2
First Quarter
Sep 8
Full
Sep 15
Last Quarter
Sep 24
New

Today's Extremes

State Highs State Lows

Community

WunderPhotos

Upload Photos

1,749,589 photos uploaded!

WunderBlogs® & News

Nearby

Snow Depth

Station Depth Elevation
No new snow has been reported.

Earthquake Activity

City Distance Mag. Time & Date
No recent earthquake activity has been reported nearby.
Minimum magnitude displayed is 2.5.

Coastal Water Temperatures

Place Temperature
No Stations Reporting

Nearby Weather Stations